Denham, Australia
Current Conditions -  °F | °C
As of 3:00 PM on Friday 28 Nov 2014 (Local Time) from YCAR Reporting Station
Clear Clear  
Wind Chill: 79°   Ceiling: Unl
Heat Index: 81°   Visibility: NA
Dew Point: 64°   Wind: 16mph
Humidity: 61%   Direction: 230°SW
Pressure: 29.85"   Gusts: NA
Location:  25.93°S, 113.53°E
Report Text: YCAR 280700Z AUTO 23014KT //// // NCD 26/18 Q1011
Loading
Personal Weather Stations






























Interactive Weather Map New forecast layout! Learn more

10-Day Weather Forecast

Advertisements
Track Severe Weather on mobile